createdAt,value
2018-01-30T00:01:24.599Z,2.80
2018-01-30T00:03:52.937Z,2.60
2018-01-30T00:06:20.514Z,2.33
2018-01-30T00:08:48.100Z,2.30
2018-01-30T00:11:16.465Z,4.00
2018-01-30T00:13:44.836Z,2.25
2018-01-30T00:16:12.389Z,2.50
2018-01-30T00:18:39.977Z,4.12
2018-01-30T00:21:08.311Z,3.22
2018-01-30T00:23:35.895Z,4.93
2018-01-30T00:26:03.516Z,2.42
2018-01-30T00:28:31.079Z,2.33
2018-01-30T00:30:58.643Z,9.57
2018-01-30T00:33:26.228Z,4.62
2018-01-30T00:35:53.828Z,2.65
2018-01-30T00:38:21.396Z,4.37
2018-01-30T00:40:49.717Z,4.72
2018-01-30T00:43:17.301Z,2.47
2018-01-30T00:45:44.857Z,4.60
2018-01-30T00:48:12.450Z,2.83
2018-01-30T00:50:40.808Z,2.20
2018-01-30T00:53:08.361Z,2.40
2018-01-30T00:55:35.950Z,5.15
2018-01-30T00:58:04.269Z,2.33
2018-01-30T01:00:31.855Z,4.72
2018-01-30T01:02:59.472Z,2.92
2018-01-30T01:05:27.024Z,2.28
2018-01-30T01:07:54.577Z,2.30
2018-01-30T01:10:22.200Z,2.58
2018-01-30T01:12:49.793Z,2.60
2018-01-30T01:15:18.111Z,2.20
2018-01-30T01:17:45.734Z,5.37
2018-01-30T01:20:14.064Z,3.08
2018-01-30T01:22:41.704Z,3.00
2018-01-30T01:25:09.292Z,2.65
2018-01-30T01:27:36.851Z,4.97
2018-01-30T01:30:04.451Z,6.43
2018-01-30T01:32:32.774Z,2.87
2018-01-30T01:35:00.366Z,3.30
2018-01-30T01:37:27.927Z,2.92
2018-01-30T01:39:56.304Z,2.75
2018-01-30T01:42:23.885Z,2.40
2018-01-30T01:44:51.498Z,3.70
2018-01-30T01:47:19.056Z,5.10
2018-01-30T01:49:46.609Z,2.92
2018-01-30T01:52:14.200Z,4.32
2018-01-30T01:54:41.805Z,3.17
2018-01-30T01:57:09.376Z,2.40
2018-01-30T01:59:36.960Z,2.30
2018-01-30T02:02:04.557Z,2.90
2018-01-30T02:04:32.201Z,3.08
2018-01-30T02:06:59.761Z,2.83
2018-01-30T02:09:27.322Z,2.65
2018-01-30T02:11:54.958Z,2.00
2018-01-30T02:14:22.581Z,2.75
2018-01-30T02:16:50.937Z,2.40
2018-01-30T02:19:18.485Z,2.70
2018-01-30T02:21:46.093Z,4.32
2018-01-30T02:24:32.125Z,3.08
2018-01-30T02:26:59.708Z,3.05
2018-01-30T02:29:27.275Z,5.40
2018-01-30T02:31:54.874Z,2.80
2018-01-30T02:34:22.438Z,6.10
2018-01-30T02:36:50.025Z,2.55
2018-01-30T02:39:17.583Z,3.92
2018-01-30T02:41:45.159Z,2.78
2018-01-30T02:44:12.761Z,3.17
2018-01-30T02:46:40.351Z,6.18
2018-01-30T02:49:07.901Z,4.10
2018-01-30T02:51:35.533Z,3.40
2018-01-30T02:54:03.921Z,2.60
2018-01-30T02:56:32.259Z,6.50
2018-01-30T02:58:59.833Z,1.98
2018-01-30T03:01:27.440Z,1.90
2018-01-30T03:03:55.013Z,3.53
2018-01-30T03:06:22.598Z,1.60
2018-01-30T03:08:50.216Z,4.40
2018-01-30T03:11:18.579Z,1.80
2018-01-30T03:13:46.920Z,2.05
2018-01-30T03:16:14.510Z,1.80
2018-01-30T03:18:42.873Z,3.28
2018-01-30T03:21:10.425Z,2.10
2018-01-30T03:23:38.082Z,3.72
2018-01-30T03:26:05.673Z,9.77
2018-01-30T03:28:33.231Z,6.62
2018-01-30T03:31:00.832Z,6.00
2018-01-30T03:33:28.417Z,2.75
2018-01-30T03:35:55.968Z,3.67
2018-01-30T03:38:23.566Z,6.47
2018-01-30T03:40:51.136Z,3.33
2018-01-30T03:43:18.751Z,6.25
2018-01-30T03:45:46.317Z,3.72
2018-01-30T03:48:13.921Z,2.80
2018-01-30T03:50:41.537Z,3.00
2018-01-30T03:53:09.097Z,2.92
2018-01-30T03:55:36.688Z,3.10
2018-01-30T03:58:04.240Z,4.85
2018-01-30T04:00:31.848Z,3.15
2018-01-30T04:02:59.416Z,3.40
2018-01-30T04:05:26.978Z,3.17
2018-01-30T04:07:54.694Z,4.93
2018-01-30T04:10:22.253Z,3.45
2018-01-30T04:12:49.817Z,4.65
2018-01-30T04:15:17.433Z,4.18
2018-01-30T04:17:45.009Z,4.32
2018-01-30T04:20:12.796Z,3.70
2018-01-30T04:22:40.398Z,3.55
2018-01-30T04:25:08.013Z,5.40
2018-01-30T04:27:35.574Z,3.50
2018-01-30T04:30:03.185Z,3.55
2018-01-30T04:32:30.766Z,4.07
2018-01-30T04:34:58.366Z,4.12
2018-01-30T04:37:25.928Z,4.35
2018-01-30T04:39:53.518Z,5.55
2018-01-30T04:42:21.860Z,4.00
2018-01-30T04:44:49.465Z,4.50
2018-01-30T04:47:17.837Z,7.00
2018-01-30T04:49:46.181Z,7.20
2018-01-30T04:52:13.801Z,5.10
2018-01-30T04:54:41.350Z,7.62
2018-01-30T04:57:09.682Z,5.07
2018-01-30T04:59:37.286Z,4.90
2018-01-30T05:02:05.627Z,4.70
2018-01-30T05:04:33.179Z,5.18
2018-01-30T05:07:00.798Z,5.00
2018-01-30T05:09:28.402Z,7.53
2018-01-30T05:11:55.957Z,7.57
2018-01-30T05:14:23.564Z,5.40
2018-01-30T05:16:51.132Z,9.80
2018-01-30T05:19:18.723Z,4.68
2018-01-30T05:21:46.353Z,10.13
2018-01-30T05:24:13.915Z,9.70
2018-01-30T05:26:41.547Z,4.50
2018-01-30T05:29:09.162Z,5.93
2018-01-30T05:31:36.723Z,5.90
2018-01-30T05:34:04.273Z,4.72
2018-01-30T05:36:31.885Z,6.40
2018-01-30T05:38:59.754Z,7.60
2018-01-30T05:41:27.361Z,6.15
2018-01-30T05:43:54.960Z,6.60
2018-01-30T05:46:22.587Z,5.07
2018-01-30T05:48:50.195Z,8.68
2018-01-30T05:51:17.761Z,11.05
2018-01-30T05:53:45.393Z,11.95
2018-01-30T05:56:12.949Z,5.12
2018-01-30T05:58:40.578Z,11.15
2018-01-30T06:01:08.168Z,4.62
2018-01-30T06:03:35.865Z,8.23
2018-01-30T06:06:03.454Z,9.25
2018-01-30T06:08:31.047Z,6.70
2018-01-30T06:10:58.645Z,13.80
2018-01-30T06:13:26.250Z,6.75
2018-01-30T06:15:53.856Z,9.00
2018-01-30T06:18:21.513Z,6.12
2018-01-30T06:20:49.076Z,8.13
2018-01-30T06:23:16.689Z,5.10
2018-01-30T06:25:47.025Z,8.68
2018-01-30T06:28:14.649Z,6.57
2018-01-30T06:30:42.217Z,6.78
2018-01-30T06:33:09.782Z,7.32
2018-01-30T06:35:37.382Z,6.22
2018-01-30T06:38:04.964Z,14.02
2018-01-30T06:40:32.553Z,10.32
2018-01-30T06:43:00.112Z,14.23
2018-01-30T06:45:27.722Z,8.18
2018-01-30T06:47:55.311Z,6.85
2018-01-30T06:50:22.939Z,12.37
2018-01-30T06:52:50.555Z,18.52
2018-01-30T06:55:18.117Z,9.13
2018-01-30T06:57:45.718Z,8.75
2018-01-30T07:00:13.322Z,11.63
2018-01-30T07:02:40.890Z,7.43
2018-01-30T07:05:08.560Z,11.32
2018-01-30T07:07:36.177Z,5.32
2018-01-30T07:10:03.740Z,5.10
2018-01-30T07:12:31.341Z,4.55
2018-01-30T07:14:58.939Z,5.00
2018-01-30T07:17:26.535Z,5.87
2018-01-30T07:19:54.259Z,4.30
2018-01-30T07:22:21.886Z,9.82
2018-01-30T07:24:49.520Z,6.87
2018-01-30T07:27:17.154Z,67.15
2018-01-30T07:29:44.770Z,27.20
2018-01-30T07:32:12.395Z,22.70
2018-01-30T07:34:40.011Z,19.50
2018-01-30T07:37:08.362Z,13.18
2018-01-30T07:39:35.936Z,7.25
2018-01-30T07:42:03.546Z,20.80
2018-01-30T07:44:31.163Z,14.20
2018-01-30T07:46:58.824Z,16.90
2018-01-30T07:49:27.263Z,13.70
2018-01-30T07:51:54.855Z,17.67
2018-01-30T07:54:22.437Z,14.45
2018-01-30T07:56:50.029Z,14.68
2018-01-30T07:59:17.642Z,10.63
2018-01-30T08:01:45.257Z,13.30
2018-01-30T08:04:12.977Z,31.73
2018-01-30T08:06:40.602Z,15.25
2018-01-30T08:09:08.945Z,18.15
2018-01-30T08:11:37.486Z,22.25
2018-01-30T08:14:05.173Z,10.07
2018-01-30T08:16:35.582Z,13.43
2018-01-30T08:19:03.186Z,36.83
2018-01-30T08:21:31.083Z,16.23
2018-01-30T08:24:00.037Z,105.03
2018-01-30T08:26:27.776Z,64.70
2018-01-30T08:28:56.402Z,185.52
2018-01-30T08:31:24.313Z,119.65
2018-01-30T08:33:52.048Z,35.97
2018-01-30T08:36:20.362Z,14.73
2018-01-30T08:38:48.178Z,10.63
2018-01-30T08:41:15.797Z,11.63
2018-01-30T08:43:43.403Z,12.30
2018-01-30T08:46:10.972Z,9.40
2018-01-30T08:48:38.646Z,11.55
2018-01-30T08:51:06.293Z,10.07
2018-01-30T08:53:33.955Z,10.90
2018-01-30T08:56:01.587Z,13.80
2018-01-30T08:58:30.139Z,5.97
2018-01-30T09:00:58.356Z,7.55
2018-01-30T09:03:27.599Z,9.35
2018-01-30T09:05:55.790Z,12.30
2018-01-30T09:08:23.528Z,16.70
2018-01-30T09:10:51.423Z,6.90
2018-01-30T09:13:21.598Z,11.20
2018-01-30T09:15:50.114Z,5.50
2018-01-30T09:18:18.270Z,10.10
2018-01-30T09:20:45.990Z,4.75
2018-01-30T09:23:14.381Z,10.57
2018-01-30T09:25:42.777Z,7.03
2018-01-30T09:28:10.457Z,4.35
2018-01-30T09:30:38.527Z,4.30
2018-01-30T09:33:06.263Z,5.68
2018-01-30T09:35:33.973Z,5.05
2018-01-30T09:38:02.718Z,3.08
2018-01-30T09:40:32.393Z,8.52
2018-01-30T09:43:00.908Z,3.30
2018-01-30T09:45:30.542Z,10.77
2018-01-30T09:47:59.059Z,9.57
2018-01-30T09:50:26.799Z,3.97
2018-01-30T09:52:54.609Z,5.55
2018-01-30T09:55:23.291Z,7.95
2018-01-30T09:57:50.944Z,9.65
2018-01-30T10:00:23.070Z,8.88
2018-01-30T10:02:52.041Z,12.18
2018-01-30T10:05:20.669Z,10.82
2018-01-30T10:07:48.623Z,11.15
2018-01-30T10:12:51.107Z,3.95
2018-01-30T10:15:18.720Z,6.12
2018-01-30T10:17:46.480Z,6.95
2018-01-30T10:20:16.503Z,4.78
2018-01-30T10:22:45.332Z,13.95
2018-01-30T10:25:13.024Z,10.77
2018-01-30T10:27:41.012Z,18.65
2018-01-30T10:30:08.725Z,14.40
2018-01-30T10:32:37.618Z,11.48
2018-01-30T10:35:05.358Z,7.50
2018-01-30T10:37:33.850Z,14.73
2018-01-30T10:40:02.446Z,15.32
2018-01-30T10:42:31.251Z,5.85
2018-01-30T10:44:59.789Z,8.48
2018-01-30T10:47:28.260Z,13.62
2018-01-30T10:49:55.994Z,5.40
2018-01-30T10:52:23.626Z,4.90
2018-01-30T10:54:51.239Z,8.77
2018-01-30T10:57:18.862Z,11.52
2018-01-30T10:59:46.553Z,7.65
2018-01-30T11:02:15.170Z,19.17
2018-01-30T11:04:42.750Z,9.50
2018-01-30T11:07:11.210Z,6.22
2018-01-30T11:09:38.859Z,4.95
2018-01-30T11:12:06.479Z,5.85
2018-01-30T11:14:34.104Z,21.17
2018-01-30T11:17:01.935Z,14.52
2018-01-30T11:19:29.547Z,9.60
2018-01-30T11:21:57.908Z,13.40
2018-01-30T11:24:25.550Z,6.20
2018-01-30T11:26:53.220Z,5.00
2018-01-30T11:29:20.809Z,5.55
2018-01-30T11:31:48.472Z,14.43
2018-01-30T11:34:17.319Z,6.28
2018-01-30T11:36:44.916Z,17.37
2018-01-30T11:39:12.586Z,10.05
2018-01-30T11:41:40.202Z,9.60
2018-01-30T11:44:07.822Z,11.60
2018-01-30T11:46:35.469Z,11.60
2018-01-30T11:49:03.900Z,7.15
2018-01-30T11:51:31.491Z,9.38
2018-01-30T11:53:59.177Z,8.27
2018-01-30T11:56:26.832Z,10.80
2018-01-30T11:58:54.609Z,15.00
2018-01-30T12:01:23.633Z,10.98
2018-01-30T12:03:52.993Z,10.32
2018-01-30T12:06:22.415Z,12.13
2018-01-30T12:08:51.263Z,15.52
2018-01-30T12:11:22.445Z,8.10
2018-01-30T12:13:53.195Z,14.40
2018-01-30T12:16:23.638Z,12.88
2018-01-30T12:18:54.531Z,21.33
2018-01-30T12:21:24.560Z,39.67
2018-01-30T12:23:53.776Z,16.90
2018-01-30T12:26:21.538Z,19.00
2018-01-30T12:28:49.110Z,23.33
2018-01-30T12:31:16.718Z,10.57
2018-01-30T12:33:44.304Z,7.60
2018-01-30T12:36:23.811Z,6.90
2018-01-30T12:38:51.908Z,9.83
2018-01-30T12:41:19.485Z,4.00
2018-01-30T12:43:47.881Z,6.70
2018-01-30T12:46:15.910Z,7.60
2018-01-30T12:48:43.603Z,4.10
2018-01-30T12:51:11.945Z,11.47
2018-01-30T12:53:39.555Z,5.30
2018-01-30T12:56:07.135Z,35.80
2018-01-30T12:58:34.766Z,6.60
2018-01-30T13:01:03.159Z,4.90
2018-01-30T13:03:30.766Z,2.77
2018-01-30T13:06:00.386Z,3.40
2018-01-30T13:08:27.965Z,3.60
2018-01-30T13:11:01.671Z,3.70
2018-01-30T13:13:34.522Z,4.30
2018-01-30T13:16:04.560Z,3.92
2018-01-30T13:18:33.868Z,4.18
2018-01-30T13:21:04.089Z,6.68
2018-01-30T13:23:33.037Z,4.68
2018-01-30T13:26:11.507Z,7.10
2018-01-30T13:28:40.106Z,5.15
2018-01-30T13:31:09.673Z,3.75
2018-01-30T13:33:38.110Z,59.88
2018-01-30T13:36:07.107Z,6.03
2018-01-30T13:38:36.087Z,17.80
2018-01-30T13:41:04.354Z,6.25
2018-01-30T13:43:33.414Z,4.53
2018-01-30T13:46:02.579Z,25.13
2018-01-30T13:48:30.201Z,6.43
2018-01-30T13:50:58.542Z,11.83
2018-01-30T13:53:26.156Z,14.50
2018-01-30T13:55:53.773Z,6.30
2018-01-30T13:58:21.382Z,4.78
2018-01-30T14:00:49.033Z,5.50
2018-01-30T14:03:16.583Z,11.60
2018-01-30T14:05:44.351Z,12.27
2018-01-30T14:08:11.952Z,37.17
2018-01-30T14:10:39.558Z,7.65
2018-01-30T14:13:07.180Z,14.77
2018-01-30T14:15:36.594Z,8.43
2018-01-30T14:18:05.257Z,20.80
2018-01-30T14:20:32.865Z,8.38
2018-01-30T14:23:00.449Z,13.32
2018-01-30T14:25:28.838Z,42.22
2018-01-30T14:27:57.183Z,14.63
2018-01-30T14:30:24.768Z,8.52
2018-01-30T14:32:53.169Z,12.73
2018-01-30T14:35:20.780Z,4.90
2018-01-30T14:37:48.413Z,4.70
2018-01-30T14:40:16.009Z,11.80
2018-01-30T14:42:43.565Z,5.57
2018-01-30T14:45:11.201Z,9.70
2018-01-30T14:47:38.802Z,8.65
2018-01-30T14:50:06.416Z,6.80
2018-01-30T14:52:34.088Z,10.75
2018-01-30T14:55:01.681Z,16.35
2018-01-30T14:57:29.274Z,13.62
2018-01-30T14:59:57.633Z,11.90
2018-01-30T15:02:26.083Z,14.00
2018-01-30T15:04:53.689Z,9.07
2018-01-30T15:07:22.050Z,84.55
2018-01-30T15:09:50.434Z,4.55
2018-01-30T15:12:18.009Z,12.27
2018-01-30T15:14:45.728Z,4.90
2018-01-30T15:17:13.368Z,10.70
2018-01-30T15:19:40.937Z,9.93
2018-01-30T15:22:09.455Z,12.98
2018-01-30T15:24:37.023Z,19.48
2018-01-30T15:27:05.429Z,8.32
2018-01-30T15:29:33.103Z,8.73
2018-01-30T15:32:00.738Z,6.80
2018-01-30T15:34:28.401Z,10.60
2018-01-30T15:36:56.765Z,5.25
2018-01-30T15:39:24.393Z,13.60
2018-01-30T15:41:52.037Z,7.15
2018-01-30T15:44:20.404Z,6.43
2018-01-30T15:46:48.976Z,9.60
2018-01-30T15:49:16.647Z,11.25
2018-01-30T15:51:44.249Z,5.93
2018-01-30T15:54:11.862Z,9.15
2018-01-30T15:56:39.465Z,15.40
2018-01-30T15:59:07.033Z,6.32
2018-01-30T16:01:34.649Z,7.00
2018-01-30T16:04:03.046Z,6.35
2018-01-30T16:06:30.642Z,11.90
2018-01-30T16:08:58.247Z,7.82
2018-01-30T16:11:25.862Z,6.53
2018-01-30T16:13:53.511Z,8.40
2018-01-30T16:16:21.109Z,14.27
2018-01-30T16:18:49.445Z,10.52
2018-01-30T16:21:17.037Z,14.55
2018-01-30T16:23:44.596Z,7.32
2018-01-30T16:26:12.248Z,11.38
2018-01-30T16:28:40.654Z,11.82
2018-01-30T16:31:13.653Z,19.45
2018-01-30T16:33:41.253Z,14.27
2018-01-30T16:36:08.865Z,11.35
2018-01-30T16:38:36.638Z,10.88
2018-01-30T16:41:04.247Z,10.57
2018-01-30T16:43:31.862Z,13.07
2018-01-30T16:46:00.206Z,15.02
2018-01-30T16:48:27.982Z,10.77
2018-01-30T16:50:55.585Z,19.00
2018-01-30T16:53:23.942Z,8.40
2018-01-30T16:55:52.333Z,7.85
2018-01-30T16:58:19.882Z,6.45
2018-01-30T17:00:47.477Z,20.05
2018-01-30T17:03:15.108Z,10.15
2018-01-30T17:05:42.698Z,16.75
2018-01-30T17:08:10.649Z,17.73
2018-01-30T17:10:38.995Z,11.85
2018-01-30T17:13:06.608Z,12.13
2018-01-30T17:15:34.195Z,21.87
2018-01-30T17:18:01.804Z,25.45
2018-01-30T17:20:29.460Z,13.60
2018-01-30T17:22:57.792Z,11.18
2018-01-30T17:25:25.386Z,10.70
2018-01-30T17:27:52.939Z,17.58
2018-01-30T17:30:20.549Z,18.62
2018-01-30T17:32:49.609Z,12.95
2018-01-30T17:35:17.209Z,8.68
2018-01-30T17:37:44.766Z,8.80
2018-01-30T17:40:12.360Z,13.20
2018-01-30T17:42:41.146Z,11.73
2018-01-30T17:45:08.756Z,12.43
2018-01-30T17:47:37.092Z,9.38
2018-01-30T17:50:04.741Z,18.23
2018-01-30T17:52:32.301Z,10.25
2018-01-30T17:54:59.853Z,9.93
2018-01-30T17:57:27.449Z,9.90
2018-01-30T17:59:55.001Z,25.45
2018-01-30T18:02:22.596Z,17.12
2018-01-30T18:04:50.927Z,11.82
2018-01-30T18:07:18.514Z,8.65
2018-01-30T18:09:46.117Z,13.00
2018-01-30T18:12:13.708Z,14.73
2018-01-30T18:14:41.300Z,14.70
2018-01-30T18:17:08.921Z,14.10
2018-01-30T18:19:36.550Z,17.95
2018-01-30T18:22:04.181Z,21.05
2018-01-30T18:24:31.763Z,14.85
2018-01-30T18:26:59.365Z,19.37
2018-01-30T18:29:26.956Z,18.27
2018-01-30T18:31:54.585Z,21.73
2018-01-30T18:34:22.133Z,11.20
2018-01-30T18:36:49.705Z,20.52
2018-01-30T18:39:17.345Z,21.10
2018-01-30T18:41:44.961Z,17.05
2018-01-30T18:44:13.341Z,21.30
2018-01-30T18:46:40.896Z,18.10
2018-01-30T18:49:08.508Z,23.85
2018-01-30T18:51:36.073Z,24.23
2018-01-30T18:54:03.680Z,24.30
2018-01-30T18:56:31.274Z,24.33
2018-01-30T18:58:59.596Z,20.10
2018-01-30T19:01:29.532Z,19.17
2018-01-30T19:03:57.100Z,30.95
2018-01-30T19:06:24.713Z,22.83
2018-01-30T19:08:52.277Z,22.35
2018-01-30T19:11:19.863Z,24.45
2018-01-30T19:13:47.442Z,21.40
2018-01-30T19:16:22.075Z,27.87
2018-01-30T19:18:49.583Z,23.00
2018-01-30T19:21:17.170Z,24.92
2018-01-30T19:23:44.763Z,21.23
2018-01-30T19:26:12.355Z,27.92
2018-01-30T19:28:40.724Z,23.23
2018-01-30T19:31:08.356Z,23.10
2018-01-30T19:33:35.932Z,22.75
2018-01-30T19:36:04.321Z,21.42
2018-01-30T19:38:32.692Z,23.35
2018-01-30T19:41:00.250Z,27.00
2018-01-30T19:43:28.633Z,19.80
2018-01-30T19:45:56.255Z,27.00
2018-01-30T19:48:23.856Z,21.10
2018-01-30T19:50:51.467Z,22.37
2018-01-30T19:53:19.041Z,27.13
2018-01-30T19:55:46.636Z,28.50
2018-01-30T19:58:14.188Z,24.12
2018-01-30T20:00:41.754Z,20.65
2018-01-30T20:03:09.354Z,23.50
2018-01-30T20:05:36.925Z,29.08
2018-01-30T20:08:04.521Z,21.05
2018-01-30T20:10:32.098Z,27.27
2018-01-30T20:12:59.702Z,17.60
2018-01-30T20:15:27.268Z,22.10
2018-01-30T20:17:54.844Z,25.12
2018-01-30T20:20:22.431Z,19.95
2018-01-30T20:22:49.999Z,21.73
2018-01-30T20:25:17.598Z,21.50
2018-01-30T20:27:45.168Z,21.25
2018-01-30T20:30:12.738Z,26.12
2018-01-30T20:32:40.393Z,25.52
2018-01-30T20:35:07.942Z,20.20
2018-01-30T20:37:35.548Z,25.50
2018-01-30T20:40:03.147Z,29.60
2018-01-30T20:42:31.524Z,27.75
2018-01-30T20:44:59.882Z,28.27
2018-01-30T20:47:27.500Z,25.62
2018-01-30T20:49:55.098Z,27.65
2018-01-30T20:52:22.678Z,32.60
2018-01-30T20:54:50.256Z,29.55
2018-01-30T20:57:18.586Z,26.05
2018-01-30T20:59:46.212Z,26.10
2018-01-30T21:02:16.795Z,32.13
2018-01-30T21:04:44.444Z,30.80
2018-01-30T21:07:12.061Z,25.12
2018-01-30T21:09:39.628Z,29.23
2018-01-30T21:12:07.257Z,29.42
2018-01-30T21:14:35.608Z,25.50
2018-01-30T21:17:03.225Z,27.60
2018-01-30T21:19:30.784Z,25.95
2018-01-30T21:21:58.351Z,23.38
2018-01-30T21:24:25.973Z,19.48
2018-01-30T21:26:53.562Z,18.95
2018-01-30T21:29:21.168Z,15.65
2018-01-30T21:31:48.732Z,14.52
2018-01-30T21:34:16.296Z,17.67
2018-01-30T21:36:43.919Z,16.85
2018-01-30T21:39:11.513Z,13.75
2018-01-30T21:41:39.120Z,12.90
2018-01-30T21:44:07.439Z,14.90
2018-01-30T21:46:35.039Z,14.90
2018-01-30T21:49:02.608Z,18.67
2018-01-30T21:51:30.168Z,18.60
2018-01-30T21:53:57.760Z,19.80
2018-01-30T21:56:25.368Z,18.08
2018-01-30T21:58:52.948Z,21.00
2018-01-30T22:01:20.505Z,28.42
2018-01-30T22:03:48.877Z,18.17
2018-01-30T22:06:23.228Z,21.30
2018-01-30T22:08:50.841Z,22.08
2018-01-30T22:11:18.411Z,19.17
2018-01-30T22:13:46.015Z,19.05
2018-01-30T22:16:14.330Z,15.70
2018-01-30T22:18:41.948Z,15.77
2018-01-30T22:21:10.261Z,12.50
2018-01-30T22:23:37.871Z,16.08
2018-01-30T22:26:05.432Z,11.73
2018-01-30T22:28:33.799Z,13.40
2018-01-30T22:31:01.353Z,19.83
2018-01-30T22:33:28.921Z,12.80
2018-01-30T22:35:56.531Z,13.48
2018-01-30T22:38:24.090Z,13.18
2018-01-30T22:40:51.713Z,18.33
2018-01-30T22:43:19.300Z,11.38
2018-01-30T22:45:46.908Z,9.30
